sensor_id;sensor_type;location;lat;lon;timestamp;P1;P4;P2;P0;N10;N4;N25;N1;N05;TS
62702;SPS30;66022;50.448;18.122;2023-03-31T00:01:08;10.95;;10.95;;;;;;;
62702;SPS30;66022;50.448;18.122;2023-03-31T00:05:15;11.19;;11.19;;;;;;;
62702;SPS30;66022;50.448;18.122;2023-03-31T00:09:23;11.19;;11.19;;;;;;;
62702;SPS30;66022;50.448;18.122;2023-03-31T00:13:31;11.19;;11.19;;;;;;;
62702;SPS30;66022;50.448;18.122;2023-03-31T00:17:39;15.28;;14.02;;;;;;;
62702;SPS30;66022;50.448;18.122;2023-03-31T00:21:47;15.28;;14.02;;;;;;;
62702;SPS30;66022;50.448;18.122;2023-03-31T00:25:55;9.53;;9.44;;;;;;;
62702;SPS30;66022;50.448;18.122;2023-03-31T00:30:04;9.53;;9.44;;;;;;;
62702;SPS30;66022;50.448;18.122;2023-03-31T00:34:11;9.53;;9.44;;;;;;;
62702;SPS30;66022;50.448;18.122;2023-03-31T00:38:19;15.67;;14.56;;;;;;;
62702;SPS30;66022;50.448;18.122;2023-03-31T00:42:27;15.67;;14.56;;;;;;;
62702;SPS30;66022;50.448;18.122;2023-03-31T00:50:46;9.57;;9.57;;;;;;;
62702;SPS30;66022;50.448;18.122;2023-03-31T00:54:53;10.50;;10.37;;;;;;;
62702;SPS30;66022;50.448;18.122;2023-03-31T00:59:00;10.50;;10.37;;;;;;;
62702;SPS30;66022;50.448;18.122;2023-03-31T01:03:07;10.50;;10.37;;;;;;;
62702;SPS30;66022;50.448;18.122;2023-03-31T01:11:23;12.22;;12.17;;;;;;;
62702;SPS30;66022;50.448;18.122;2023-03-31T01:15:31;11.92;;11.92;;;;;;;
62702;SPS30;66022;50.448;18.122;2023-03-31T01:40:24;9.30;;9.30;;;;;;;
62702;SPS30;66022;50.448;18.122;2023-03-31T01:52:47;12.14;;11.46;;;;;;;
62702;SPS30;66022;50.448;18.122;2023-03-31T01:56:54;9.47;;9.47;;;;;;;
62702;SPS30;66022;50.448;18.122;2023-03-31T02:01:04;9.47;;9.47;;;;;;;
62702;SPS30;66022;50.448;18.122;2023-03-31T02:05:17;11.70;;11.47;;;;;;;
62702;SPS30;66022;50.448;18.122;2023-03-31T02:09:16;11.70;;11.47;;;;;;;
62702;SPS30;66022;50.448;18.122;2023-03-31T02:13:23;11.70;;11.47;;;;;;;
62702;SPS30;66022;50.448;18.122;2023-03-31T02:17:31;11.06;;10.77;;;;;;;
62702;SPS30;66022;50.448;18.122;2023-03-31T02:21:39;11.06;;10.77;;;;;;;
62702;SPS30;66022;50.448;18.122;2023-03-31T02:25:48;13.11;;12.59;;;;;;;
62702;SPS30;66022;50.448;18.122;2023-03-31T02:29:55;13.11;;12.59;;;;;;;
62702;SPS30;66022;50.448;18.122;2023-03-31T02:34:03;13.11;;12.59;;;;;;;
62702;SPS30;66022;50.448;18.122;2023-03-31T02:38:11;13.23;;12.84;;;;;;;
62702;SPS30;66022;50.448;18.122;2023-03-31T02:42:19;13.23;;12.84;;;;;;;
62702;SPS30;66022;50.448;18.122;2023-03-31T02:46:27;11.44;;11.44;;;;;;;
62702;SPS30;66022;50.448;18.122;2023-03-31T02:50:42;11.44;;11.44;;;;;;;
62702;SPS30;66022;50.448;18.122;2023-03-31T03:15:25;15.65;;15.00;;;;;;;
62702;SPS30;66022;50.448;18.122;2023-03-31T03:19:31;15.65;;15.00;;;;;;;
62702;SPS30;66022;50.448;18.122;2023-03-31T03:23:39;15.65;;15.00;;;;;;;
62702;SPS30;66022;50.448;18.122;2023-03-31T03:27:48;21.66;;20.98;;;;;;;
62702;SPS30;66022;50.448;18.122;2023-03-31T03:31:55;21.66;;20.98;;;;;;;
62702;SPS30;66022;50.448;18.122;2023-03-31T03:36:04;22.89;;22.35;;;;;;;
62702;SPS30;66022;50.448;18.122;2023-03-31T03:40:11;22.89;;22.35;;;;;;;
62702;SPS30;66022;50.448;18.122;2023-03-31T03:44:19;22.89;;22.35;;;;;;;
62702;SPS30;66022;50.448;18.122;2023-03-31T03:48:27;23.80;;22.91;;;;;;;
62702;SPS30;66022;50.448;18.122;2023-03-31T03:52:35;23.80;;22.91;;;;;;;
62702;SPS30;66022;50.448;18.122;2023-03-31T03:56:43;17.23;;17.09;;;;;;;
62702;SPS30;66022;50.448;18.122;2023-03-31T04:00:51;17.23;;17.09;;;;;;;
62702;SPS30;66022;50.448;18.122;2023-03-31T04:04:59;15.82;;15.60;;;;;;;
62702;SPS30;66022;50.448;18.122;2023-03-31T04:09:07;15.82;;15.60;;;;;;;
62702;SPS30;66022;50.448;18.122;2023-03-31T04:13:16;15.82;;15.60;;;;;;;
62702;SPS30;66022;50.448;18.122;2023-03-31T04:17:23;17.66;;17.66;;;;;;;
62702;SPS30;66022;50.448;18.122;2023-03-31T04:21:31;17.66;;17.66;;;;;;;
62702;SPS30;66022;50.448;18.122;2023-03-31T04:25:40;21.68;;21.68;;;;;;;
62702;SPS30;66022;50.448;18.122;2023-03-31T04:29:47;21.68;;21.68;;;;;;;
62702;SPS30;66022;50.448;18.122;2023-03-31T04:33:56;21.68;;21.68;;;;;;;
62702;SPS30;66022;50.448;18.122;2023-03-31T04:38:04;22.89;;21.25;;;;;;;
62702;SPS30;66022;50.448;18.122;2023-03-31T04:42:11;22.89;;21.25;;;;;;;
62702;SPS30;66022;50.448;18.122;2023-03-31T04:46:20;18.25;;18.10;;;;;;;
62702;SPS30;66022;50.448;18.122;2023-03-31T04:50:28;18.25;;18.10;;;;;;;
62702;SPS30;66022;50.448;18.122;2023-03-31T04:54:36;18.25;;18.10;;;;;;;
62702;SPS30;66022;50.448;18.122;2023-03-31T04:58:44;16.98;;16.90;;;;;;;
62702;SPS30;66022;50.448;18.122;2023-03-31T05:02:52;16.98;;16.90;;;;;;;
62702;SPS30;66022;50.448;18.122;2023-03-31T05:07:00;20.02;;18.40;;;;;;;
62702;SPS30;66022;50.448;18.122;2023-03-31T05:11:07;20.02;;18.40;;;;;;;
62702;SPS30;66022;50.448;18.122;2023-03-31T05:15:16;16.18;;15.70;;;;;;;
62702;SPS30;66022;50.448;18.122;2023-03-31T05:19:24;16.18;;15.70;;;;;;;
62702;SPS30;66022;50.448;18.122;2023-03-31T05:23:32;16.18;;15.70;;;;;;;
62702;SPS30;66022;50.448;18.122;2023-03-31T05:27:40;45.64;;43.44;;;;;;;
62702;SPS30;66022;50.448;18.122;2023-03-31T05:31:48;45.64;;43.44;;;;;;;
62702;SPS30;66022;50.448;18.122;2023-03-31T05:35:57;24.27;;23.50;;;;;;;
62702;SPS30;66022;50.448;18.122;2023-03-31T05:40:04;24.27;;23.50;;;;;;;
62702;SPS30;66022;50.448;18.122;2023-03-31T05:44:12;24.27;;23.50;;;;;;;
62702;SPS30;66022;50.448;18.122;2023-03-31T05:48:19;21.07;;19.29;;;;;;;
62702;SPS30;66022;50.448;18.122;2023-03-31T05:52:28;21.07;;19.29;;;;;;;
62702;SPS30;66022;50.448;18.122;2023-03-31T05:56:35;20.40;;19.81;;;;;;;
62702;SPS30;66022;50.448;18.122;2023-03-31T06:00:44;20.40;;19.81;;;;;;;
62702;SPS30;66022;50.448;18.122;2023-03-31T06:04:51;21.88;;21.49;;;;;;;
62702;SPS30;66022;50.448;18.122;2023-03-31T06:08:59;21.88;;21.49;;;;;;;
62702;SPS30;66022;50.448;18.122;2023-03-31T06:13:08;21.88;;21.49;;;;;;;
62702;SPS30;66022;50.448;18.122;2023-03-31T06:17:15;25.22;;23.65;;;;;;;
62702;SPS30;66022;50.448;18.122;2023-03-31T06:21:23;25.22;;23.65;;;;;;;
62702;SPS30;66022;50.448;18.122;2023-03-31T06:25:31;22.25;;21.56;;;;;;;
62702;SPS30;66022;50.448;18.122;2023-03-31T06:29:39;22.25;;21.56;;;;;;;
62702;SPS30;66022;50.448;18.122;2023-03-31T06:33:47;22.25;;21.56;;;;;;;
62702;SPS30;66022;50.448;18.122;2023-03-31T06:37:55;23.53;;22.94;;;;;;;
62702;SPS30;66022;50.448;18.122;2023-03-31T06:42:03;23.53;;22.94;;;;;;;
62702;SPS30;66022;50.448;18.122;2023-03-31T06:46:12;25.83;;24.24;;;;;;;
62702;SPS30;66022;50.448;18.122;2023-03-31T06:50:20;25.83;;24.24;;;;;;;
62702;SPS30;66022;50.448;18.122;2023-03-31T06:54:27;25.83;;24.24;;;;;;;
62702;SPS30;66022;50.448;18.122;2023-03-31T06:58:35;23.89;;23.60;;;;;;;
62702;SPS30;66022;50.448;18.122;2023-03-31T07:02:43;23.89;;23.60;;;;;;;
62702;SPS30;66022;50.448;18.122;2023-03-31T07:06:52;22.52;;22.52;;;;;;;
62702;SPS30;66022;50.448;18.122;2023-03-31T07:11:00;22.52;;22.52;;;;;;;
62702;SPS30;66022;50.448;18.122;2023-03-31T07:15:08;18.90;;18.90;;;;;;;
62702;SPS30;66022;50.448;18.122;2023-03-31T07:19:16;18.90;;18.90;;;;;;;
62702;SPS30;66022;50.448;18.122;2023-03-31T07:23:24;18.90;;18.90;;;;;;;
62702;SPS30;66022;50.448;18.122;2023-03-31T07:27:32;13.91;;13.91;;;;;;;
62702;SPS30;66022;50.448;18.122;2023-03-31T07:31:39;13.91;;13.91;;;;;;;
62702;SPS30;66022;50.448;18.122;2023-03-31T07:35:47;13.32;;13.32;;;;;;;
62702;SPS30;66022;50.448;18.122;2023-03-31T07:39:55;13.32;;13.32;;;;;;;
62702;SPS30;66022;50.448;18.122;2023-03-31T07:44:04;13.32;;13.32;;;;;;;
62702;SPS30;66022;50.448;18.122;2023-03-31T07:48:12;13.13;;12.51;;;;;;;
62702;SPS30;66022;50.448;18.122;2023-03-31T07:52:20;13.13;;12.51;;;;;;;
62702;SPS30;66022;50.448;18.122;2023-03-31T07:56:28;13.83;;12.05;;;;;;;
62702;SPS30;66022;50.448;18.122;2023-03-31T08:00:36;13.83;;12.05;;;;;;;
62702;SPS30;66022;50.448;18.122;2023-03-31T08:04:44;13.83;;12.05;;;;;;;
62702;SPS30;66022;50.448;18.122;2023-03-31T08:08:52;9.20;;9.20;;;;;;;
62702;SPS30;66022;50.448;18.122;2023-03-31T08:13:00;9.20;;9.20;;;;;;;
62702;SPS30;66022;50.448;18.122;2023-03-31T08:17:11;9.41;;9.41;;;;;;;
62702;SPS30;66022;50.448;18.122;2023-03-31T08:21:16;9.41;;9.41;;;;;;;
62702;SPS30;66022;50.448;18.122;2023-03-31T08:25:24;9.51;;9.51;;;;;;;
62702;SPS30;66022;50.448;18.122;2023-03-31T08:29:32;9.51;;9.51;;;;;;;
62702;SPS30;66022;50.448;18.122;2023-03-31T08:33:40;9.51;;9.51;;;;;;;
62702;SPS30;66022;50.448;18.122;2023-03-31T08:37:48;5.03;;4.70;;;;;;;
62702;SPS30;66022;50.448;18.122;2023-03-31T08:46:04;7.20;;6.49;;;;;;;
62702;SPS30;66022;50.448;18.122;2023-03-31T08:50:13;7.20;;6.49;;;;;;;
62702;SPS30;66022;50.448;18.122;2023-03-31T08:54:27;7.20;;6.49;;;;;;;
62702;SPS30;66022;50.448;18.122;2023-03-31T08:58:33;4.52;;4.52;;;;;;;
62702;SPS30;66022;50.448;18.122;2023-03-31T09:02:39;4.52;;4.52;;;;;;;
62702;SPS30;66022;50.448;18.122;2023-03-31T09:10:53;4.56;;4.56;;;;;;;
62702;SPS30;66022;50.448;18.122;2023-03-31T09:15:00;5.35;;5.11;;;;;;;
62702;SPS30;66022;50.448;18.122;2023-03-31T09:19:13;5.35;;5.11;;;;;;;
62702;SPS30;66022;50.448;18.122;2023-03-31T09:27:25;6.14;;5.77;;;;;;;
62702;SPS30;66022;50.448;18.122;2023-03-31T09:31:32;6.14;;5.77;;;;;;;
62702;SPS30;66022;50.448;18.122;2023-03-31T09:35:40;6.48;;5.87;;;;;;;
62702;SPS30;66022;50.448;18.122;2023-03-31T09:39:48;6.48;;5.87;;;;;;;
62702;SPS30;66022;50.448;18.122;2023-03-31T09:43:56;6.48;;5.87;;;;;;;
62702;SPS30;66022;50.448;18.122;2023-03-31T09:48:06;4.28;;4.28;;;;;;;
62702;SPS30;66022;50.448;18.122;2023-03-31T09:52:15;4.28;;4.28;;;;;;;
62702;SPS30;66022;50.448;18.122;2023-03-31T10:00:28;6.11;;5.59;;;;;;;
62702;SPS30;66022;50.448;18.122;2023-03-31T10:04:43;6.11;;5.59;;;;;;;
62702;SPS30;66022;50.448;18.122;2023-03-31T10:08:48;6.29;;6.07;;;;;;;
62702;SPS30;66022;50.448;18.122;2023-03-31T10:12:52;6.29;;6.07;;;;;;;
62702;SPS30;66022;50.448;18.122;2023-03-31T10:17:02;10.71;;9.87;;;;;;;
62702;SPS30;66022;50.448;18.122;2023-03-31T10:33:32;6.66;;6.45;;;;;;;
62702;SPS30;66022;50.448;18.122;2023-03-31T10:37:40;5.75;;5.21;;;;;;;
62702;SPS30;66022;50.448;18.122;2023-03-31T10:41:49;5.75;;5.21;;;;;;;
62702;SPS30;66022;50.448;18.122;2023-03-31T10:45:57;5.49;;5.32;;;;;;;
62702;SPS30;66022;50.448;18.122;2023-03-31T10:50:08;5.49;;5.32;;;;;;;
62702;SPS30;66022;50.448;18.122;2023-03-31T10:54:12;5.49;;5.32;;;;;;;
62702;SPS30;66022;50.448;18.122;2023-03-31T11:02:46;4.00;;4.00;;;;;;;
62702;SPS30;66022;50.448;18.122;2023-03-31T11:10:52;5.22;;5.14;;;;;;;
62702;SPS30;66022;50.448;18.122;2023-03-31T11:19:06;6.07;;5.87;;;;;;;
62702;SPS30;66022;50.448;18.122;2023-03-31T11:35:41;4.61;;4.61;;;;;;;
62702;SPS30;66022;50.448;18.122;2023-03-31T11:44:08;4.61;;4.61;;;;;;;
62702;SPS30;66022;50.448;18.122;2023-03-31T11:47:58;4.96;;4.75;;;;;;;
62702;SPS30;66022;50.448;18.122;2023-03-31T11:56:12;3.00;;3.00;;;;;;;
62702;SPS30;66022;50.448;18.122;2023-03-31T12:00:21;3.00;;3.00;;;;;;;
62702;SPS30;66022;50.448;18.122;2023-03-31T12:08:40;2.49;;2.49;;;;;;;
62702;SPS30;66022;50.448;18.122;2023-03-31T12:12:53;2.49;;2.49;;;;;;;
62702;SPS30;66022;50.448;18.122;2023-03-31T12:16:53;2.81;;2.61;;;;;;;
62702;SPS30;66022;50.448;18.122;2023-03-31T12:21:01;2.81;;2.61;;;;;;;
62702;SPS30;66022;50.448;18.122;2023-03-31T12:25:12;3.61;;3.51;;;;;;;
62702;SPS30;66022;50.448;18.122;2023-03-31T12:33:25;3.61;;3.51;;;;;;;
62702;SPS30;66022;50.448;18.122;2023-03-31T12:45:57;3.50;;3.36;;;;;;;
62702;SPS30;66022;50.448;18.122;2023-03-31T13:02:21;3.23;;3.17;;;;;;;
62702;SPS30;66022;50.448;18.122;2023-03-31T13:14:45;4.91;;4.69;;;;;;;
62702;SPS30;66022;50.448;18.122;2023-03-31T13:18:52;6.35;;5.89;;;;;;;
62702;SPS30;66022;50.448;18.122;2023-03-31T13:23:01;6.35;;5.89;;;;;;;
62702;SPS30;66022;50.448;18.122;2023-03-31T13:31:16;8.94;;8.94;;;;;;;
62702;SPS30;66022;50.448;18.122;2023-03-31T13:35:25;12.03;;10.74;;;;;;;
62702;SPS30;66022;50.448;18.122;2023-03-31T13:39:41;12.03;;10.74;;;;;;;
62702;SPS30;66022;50.448;18.122;2023-03-31T13:52:01;12.84;;11.63;;;;;;;
62702;SPS30;66022;50.448;18.122;2023-03-31T14:12:39;11.41;;11.40;;;;;;;
62702;SPS30;66022;50.448;18.122;2023-03-31T14:16:45;11.80;;10.30;;;;;;;
62702;SPS30;66022;50.448;18.122;2023-03-31T14:37:24;6.84;;6.59;;;;;;;
62702;SPS30;66022;50.448;18.122;2023-03-31T14:41:33;6.84;;6.59;;;;;;;
62702;SPS30;66022;50.448;18.122;2023-03-31T14:45:42;7.69;;7.23;;;;;;;
62702;SPS30;66022;50.448;18.122;2023-03-31T14:49:58;7.69;;7.23;;;;;;;
62702;SPS30;66022;50.448;18.122;2023-03-31T14:53:57;7.69;;7.23;;;;;;;
62702;SPS30;66022;50.448;18.122;2023-03-31T14:58:04;7.28;;6.59;;;;;;;
62702;SPS30;66022;50.448;18.122;2023-03-31T15:06:23;25.95;;20.21;;;;;;;
62702;SPS30;66022;50.448;18.122;2023-03-31T15:10:30;25.95;;20.21;;;;;;;
62702;SPS30;66022;50.448;18.122;2023-03-31T15:14:41;25.95;;20.21;;;;;;;
62702;SPS30;66022;50.448;18.122;2023-03-31T15:18:45;11.23;;10.65;;;;;;;
62702;SPS30;66022;50.448;18.122;2023-03-31T15:22:56;11.23;;10.65;;;;;;;
62702;SPS30;66022;50.448;18.122;2023-03-31T15:31:08;10.37;;9.68;;;;;;;
62702;SPS30;66022;50.448;18.122;2023-03-31T15:35:20;16.90;;14.80;;;;;;;
62702;SPS30;66022;50.448;18.122;2023-03-31T15:39:25;16.90;;14.80;;;;;;;
62702;SPS30;66022;50.448;18.122;2023-03-31T15:51:49;13.58;;12.95;;;;;;;
62702;SPS30;66022;50.448;18.122;2023-03-31T15:55:57;21.13;;19.35;;;;;;;
62702;SPS30;66022;50.448;18.122;2023-03-31T16:00:05;21.13;;19.35;;;;;;;
62702;SPS30;66022;50.448;18.122;2023-03-31T16:04:13;21.13;;19.35;;;;;;;
62702;SPS30;66022;50.448;18.122;2023-03-31T16:08:22;11.54;;10.99;;;;;;;
62702;SPS30;66022;50.448;18.122;2023-03-31T16:12:33;11.54;;10.99;;;;;;;
62702;SPS30;66022;50.448;18.122;2023-03-31T16:16:37;12.77;;12.60;;;;;;;
62702;SPS30;66022;50.448;18.122;2023-03-31T16:20:49;12.77;;12.60;;;;;;;
62702;SPS30;66022;50.448;18.122;2023-03-31T16:24:53;11.70;;11.70;;;;;;;
62702;SPS30;66022;50.448;18.122;2023-03-31T16:29:01;11.70;;11.70;;;;;;;
62702;SPS30;66022;50.448;18.122;2023-03-31T16:33:09;11.70;;11.70;;;;;;;
62702;SPS30;66022;50.448;18.122;2023-03-31T16:37:17;13.16;;12.95;;;;;;;
62702;SPS30;66022;50.448;18.122;2023-03-31T16:41:26;13.16;;12.95;;;;;;;
62702;SPS30;66022;50.448;18.122;2023-03-31T16:45:33;15.53;;13.65;;;;;;;
62702;SPS30;66022;50.448;18.122;2023-03-31T16:49:42;15.53;;13.65;;;;;;;
62702;SPS30;66022;50.448;18.122;2023-03-31T16:53:48;15.53;;13.65;;;;;;;
62702;SPS30;66022;50.448;18.122;2023-03-31T16:57:57;10.24;;9.99;;;;;;;
62702;SPS30;66022;50.448;18.122;2023-03-31T17:02:05;10.24;;9.99;;;;;;;
62702;SPS30;66022;50.448;18.122;2023-03-31T17:06:13;9.22;;9.22;;;;;;;
62702;SPS30;66022;50.448;18.122;2023-03-31T17:10:20;9.22;;9.22;;;;;;;
62702;SPS30;66022;50.448;18.122;2023-03-31T17:14:29;9.22;;9.22;;;;;;;
62702;SPS30;66022;50.448;18.122;2023-03-31T17:18:37;16.07;;15.79;;;;;;;
62702;SPS30;66022;50.448;18.122;2023-03-31T17:22:45;16.07;;15.79;;;;;;;
62702;SPS30;66022;50.448;18.122;2023-03-31T17:26:53;12.18;;11.79;;;;;;;
62702;SPS30;66022;50.448;18.122;2023-03-31T17:31:01;12.18;;11.79;;;;;;;
62702;SPS30;66022;50.448;18.122;2023-03-31T17:35:10;53.04;;47.40;;;;;;;
62702;SPS30;66022;50.448;18.122;2023-03-31T17:39:17;53.04;;47.40;;;;;;;
62702;SPS30;66022;50.448;18.122;2023-03-31T17:43:25;53.04;;47.40;;;;;;;
62702;SPS30;66022;50.448;18.122;2023-03-31T17:47:33;37.90;;34.35;;;;;;;
62702;SPS30;66022;50.448;18.122;2023-03-31T17:51:41;37.90;;34.35;;;;;;;
62702;SPS30;66022;50.448;18.122;2023-03-31T17:55:49;14.89;;14.57;;;;;;;
62702;SPS30;66022;50.448;18.122;2023-03-31T17:59:57;14.89;;14.57;;;;;;;
62702;SPS30;66022;50.448;18.122;2023-03-31T18:04:05;14.89;;14.57;;;;;;;
62702;SPS30;66022;50.448;18.122;2023-03-31T18:08:12;9.07;;8.78;;;;;;;
62702;SPS30;66022;50.448;18.122;2023-03-31T18:12:20;9.07;;8.78;;;;;;;
62702;SPS30;66022;50.448;18.122;2023-03-31T18:16:29;9.74;;9.73;;;;;;;
62702;SPS30;66022;50.448;18.122;2023-03-31T18:20:36;9.74;;9.73;;;;;;;
62702;SPS30;66022;50.448;18.122;2023-03-31T18:24:45;9.74;;9.73;;;;;;;
62702;SPS30;66022;50.448;18.122;2023-03-31T18:28:52;18.52;;17.63;;;;;;;
62702;SPS30;66022;50.448;18.122;2023-03-31T18:33:00;18.52;;17.63;;;;;;;
62702;SPS30;66022;50.448;18.122;2023-03-31T18:37:09;14.03;;13.44;;;;;;;
62702;SPS30;66022;50.448;18.122;2023-03-31T18:41:17;14.03;;13.44;;;;;;;
62702;SPS30;66022;50.448;18.122;2023-03-31T18:45:25;15.41;;14.89;;;;;;;
62702;SPS30;66022;50.448;18.122;2023-03-31T18:49:33;15.41;;14.89;;;;;;;
62702;SPS30;66022;50.448;18.122;2023-03-31T18:53:40;15.41;;14.89;;;;;;;
62702;SPS30;66022;50.448;18.122;2023-03-31T18:57:48;23.60;;23.27;;;;;;;
62702;SPS30;66022;50.448;18.122;2023-03-31T19:01:56;23.60;;23.27;;;;;;;
62702;SPS30;66022;50.448;18.122;2023-03-31T19:06:05;26.77;;25.61;;;;;;;
62702;SPS30;66022;50.448;18.122;2023-03-31T19:10:13;26.77;;25.61;;;;;;;
62702;SPS30;66022;50.448;18.122;2023-03-31T19:14:21;26.77;;25.61;;;;;;;
62702;SPS30;66022;50.448;18.122;2023-03-31T19:18:29;44.78;;38.66;;;;;;;
62702;SPS30;66022;50.448;18.122;2023-03-31T19:22:37;44.78;;38.66;;;;;;;
62702;SPS30;66022;50.448;18.122;2023-03-31T19:26:45;28.45;;27.78;;;;;;;
62702;SPS30;66022;50.448;18.122;2023-03-31T19:30:53;28.45;;27.78;;;;;;;
62702;SPS30;66022;50.448;18.122;2023-03-31T19:35:01;84.43;;81.20;;;;;;;
62702;SPS30;66022;50.448;18.122;2023-03-31T19:39:08;84.43;;81.20;;;;;;;
62702;SPS30;66022;50.448;18.122;2023-03-31T19:43:17;84.43;;81.20;;;;;;;
62702;SPS30;66022;50.448;18.122;2023-03-31T19:47:26;47.27;;44.31;;;;;;;
62702;SPS30;66022;50.448;18.122;2023-03-31T19:51:35;47.27;;44.31;;;;;;;
62702;SPS30;66022;50.448;18.122;2023-03-31T19:55:41;35.56;;35.54;;;;;;;
62702;SPS30;66022;50.448;18.122;2023-03-31T19:59:49;35.56;;35.54;;;;;;;
62702;SPS30;66022;50.448;18.122;2023-03-31T20:03:57;35.56;;35.54;;;;;;;
62702;SPS30;66022;50.448;18.122;2023-03-31T20:08:05;22.72;;21.85;;;;;;;
62702;SPS30;66022;50.448;18.122;2023-03-31T20:12:13;22.72;;21.85;;;;;;;
62702;SPS30;66022;50.448;18.122;2023-03-31T20:16:21;24.36;;22.15;;;;;;;
62702;SPS30;66022;50.448;18.122;2023-03-31T20:20:30;24.36;;22.15;;;;;;;
62702;SPS30;66022;50.448;18.122;2023-03-31T20:24:37;24.36;;22.15;;;;;;;
62702;SPS30;66022;50.448;18.122;2023-03-31T20:28:45;22.39;;21.27;;;;;;;
62702;SPS30;66022;50.448;18.122;2023-03-31T20:32:53;22.39;;21.27;;;;;;;
62702;SPS30;66022;50.448;18.122;2023-03-31T20:37:01;27.18;;26.93;;;;;;;
62702;SPS30;66022;50.448;18.122;2023-03-31T20:41:09;27.18;;26.93;;;;;;;
62702;SPS30;66022;50.448;18.122;2023-03-31T20:45:17;25.67;;24.68;;;;;;;
62702;SPS30;66022;50.448;18.122;2023-03-31T20:49:25;25.67;;24.68;;;;;;;
62702;SPS30;66022;50.448;18.122;2023-03-31T20:53:33;25.67;;24.68;;;;;;;
62702;SPS30;66022;50.448;18.122;2023-03-31T20:57:41;26.04;;25.86;;;;;;;
62702;SPS30;66022;50.448;18.122;2023-03-31T21:01:49;26.04;;25.86;;;;;;;
62702;SPS30;66022;50.448;18.122;2023-03-31T21:05:59;25.47;;25.12;;;;;;;
62702;SPS30;66022;50.448;18.122;2023-03-31T21:10:05;25.47;;25.12;;;;;;;
62702;SPS30;66022;50.448;18.122;2023-03-31T21:14:13;25.47;;25.12;;;;;;;
62702;SPS30;66022;50.448;18.122;2023-03-31T21:18:26;23.06;;22.47;;;;;;;
62702;SPS30;66022;50.448;18.122;2023-03-31T21:22:29;23.06;;22.47;;;;;;;
62702;SPS30;66022;50.448;18.122;2023-03-31T21:26:37;19.82;;18.66;;;;;;;
62702;SPS30;66022;50.448;18.122;2023-03-31T21:31:02;19.82;;18.66;;;;;;;
62702;SPS30;66022;50.448;18.122;2023-03-31T21:34:53;15.05;;15.01;;;;;;;
62702;SPS30;66022;50.448;18.122;2023-03-31T21:39:01;15.05;;15.01;;;;;;;
62702;SPS30;66022;50.448;18.122;2023-03-31T21:43:13;15.05;;15.01;;;;;;;
62702;SPS30;66022;50.448;18.122;2023-03-31T21:47:22;21.06;;18.59;;;;;;;
62702;SPS30;66022;50.448;18.122;2023-03-31T21:51:27;21.06;;18.59;;;;;;;
62702;SPS30;66022;50.448;18.122;2023-03-31T21:55:33;17.14;;16.74;;;;;;;
62702;SPS30;66022;50.448;18.122;2023-03-31T21:59:41;17.14;;16.74;;;;;;;
62702;SPS30;66022;50.448;18.122;2023-03-31T22:03:49;17.14;;16.74;;;;;;;
62702;SPS30;66022;50.448;18.122;2023-03-31T22:07:58;15.67;;14.77;;;;;;;
62702;SPS30;66022;50.448;18.122;2023-03-31T22:12:05;15.67;;14.77;;;;;;;
62702;SPS30;66022;50.448;18.122;2023-03-31T22:16:14;13.69;;12.91;;;;;;;
62702;SPS30;66022;50.448;18.122;2023-03-31T22:20:21;13.69;;12.91;;;;;;;
62702;SPS30;66022;50.448;18.122;2023-03-31T22:24:29;13.69;;12.91;;;;;;;
62702;SPS30;66022;50.448;18.122;2023-03-31T22:28:37;10.40;;10.28;;;;;;;
62702;SPS30;66022;50.448;18.122;2023-03-31T22:32:45;10.40;;10.28;;;;;;;
62702;SPS30;66022;50.448;18.122;2023-03-31T22:36:53;10.00;;10.00;;;;;;;
62702;SPS30;66022;50.448;18.122;2023-03-31T22:41:01;10.00;;10.00;;;;;;;
62702;SPS30;66022;50.448;18.122;2023-03-31T22:45:09;11.42;;11.22;;;;;;;
62702;SPS30;66022;50.448;18.122;2023-03-31T22:49:17;11.42;;11.22;;;;;;;
62702;SPS30;66022;50.448;18.122;2023-03-31T22:53:25;11.42;;11.22;;;;;;;
62702;SPS30;66022;50.448;18.122;2023-03-31T22:57:33;13.56;;12.85;;;;;;;
62702;SPS30;66022;50.448;18.122;2023-03-31T23:01:41;13.56;;12.85;;;;;;;
62702;SPS30;66022;50.448;18.122;2023-03-31T23:05:49;10.20;;10.20;;;;;;;
62702;SPS30;66022;50.448;18.122;2023-03-31T23:09:57;10.20;;10.20;;;;;;;
62702;SPS30;66022;50.448;18.122;2023-03-31T23:14:05;10.20;;10.20;;;;;;;
62702;SPS30;66022;50.448;18.122;2023-03-31T23:18:13;11.80;;10.52;;;;;;;
62702;SPS30;66022;50.448;18.122;2023-03-31T23:22:21;11.80;;10.52;;;;;;;
62702;SPS30;66022;50.448;18.122;2023-03-31T23:26:29;8.58;;8.58;;;;;;;
62702;SPS30;66022;50.448;18.122;2023-03-31T23:30:37;8.58;;8.58;;;;;;;
62702;SPS30;66022;50.448;18.122;2023-03-31T23:34:45;8.58;;8.58;;;;;;;
62702;SPS30;66022;50.448;18.122;2023-03-31T23:38:54;9.31;;9.31;;;;;;;
62702;SPS30;66022;50.448;18.122;2023-03-31T23:43:01;9.31;;9.31;;;;;;;
62702;SPS30;66022;50.448;18.122;2023-03-31T23:47:09;9.22;;9.22;;;;;;;
62702;SPS30;66022;50.448;18.122;2023-03-31T23:51:20;9.22;;9.22;;;;;;;
62702;SPS30;66022;50.448;18.122;2023-03-31T23:55:25;10.99;;10.71;;;;;;;
62702;SPS30;66022;50.448;18.122;2023-03-31T23:59:33;10.99;;10.71;;;;;;;
